KQWM/QWM METAR and TAF weather

Enter ICAO airport designator
Station Type Date Time Source
KQWM METAR 2021/09/28 04:56 UTC NOAA

KQWM 280456Z 30007KT 9999 CLR 27/M06 A2977 RMK AO2A SLP077 WND DATA ESTMD T02661063


Station Type Date Time Source
KQWM Decoded METAR 2021/09/28 04:56 UTC NOAA

Station name not available
Sep 28, 2021 - 12:56 AM EDT / 2021.09.28 0456 UTC
Wind: from the WNW (300 degrees) at 8 MPH (7 KT):0
Visibility: greater than 7 mile(s):0
Sky conditions: clear
Temperature: 79.9 F (26.6 C)
Dew Point: 20.7 F (-6.3 C)
Relative Humidity: 10%
Pressure (altimeter): 29.77 in. Hg (1008 hPa)
ob: KQWM 280456Z 30007KT 9999 CLR 27/M06 A2977 RMK AO2A SLP077 WND DATA ESTMD T02661063
cycle: 5

Station Type Date Time Source
KQWM TAF 2016/03/17 15:00 UTC NOAA

TAF KQWM 171500Z 1715/1821 28009KT 9000 HZ SKC QNH2995INS
TEMPO 1715/1717 27015G20KT
BECMG 1807/1808 29012G20KT 8000 HZ SKC QNH2998INS
BECMG 1814/1815 29009KT 9999 NSW SKC QNH3002INS TX26/1811Z TN13/1803Z

Example: see airport list